createdAt,value
2019-03-02T00:04:48.409Z,87.20
2019-03-02T00:09:42.104Z,86.43
2019-03-02T00:14:36.683Z,86.49
2019-03-02T00:19:31.281Z,86.54
2019-03-02T00:24:25.860Z,86.54
2019-03-02T00:29:20.480Z,86.51
2019-03-02T00:34:15.086Z,86.60
2019-03-02T00:39:10.647Z,86.74
2019-03-02T00:44:05.288Z,86.71
2019-03-02T00:48:59.891Z,85.95
2019-03-02T00:53:54.510Z,85.92
2019-03-02T00:58:49.117Z,85.82
2019-03-02T01:03:43.679Z,85.48
2019-03-02T01:08:38.345Z,85.56
2019-03-02T01:13:33.013Z,84.84
2019-03-02T01:18:27.690Z,82.87
2019-03-02T01:23:23.833Z,82.24
2019-03-02T01:28:18.569Z,81.99
2019-03-02T01:33:13.160Z,81.44
2019-03-02T01:38:07.856Z,80.61
2019-03-02T01:43:04.925Z,80.85
2019-03-02T01:47:58.759Z,81.61
2019-03-02T01:52:53.331Z,82.76
2019-03-02T01:57:48.830Z,82.97
2019-03-02T02:02:44.461Z,82.99
2019-03-02T02:07:39.132Z,82.31
2019-03-02T02:12:33.778Z,81.77
2019-03-02T02:17:28.402Z,81.82
2019-03-02T02:22:22.991Z,81.71
2019-03-02T02:27:18.862Z,80.88
2019-03-02T02:32:13.893Z,81.35
2019-03-02T02:37:08.562Z,81.09
2019-03-02T02:42:05.322Z,79.02
2019-03-02T02:46:59.530Z,78.75
2019-03-02T02:51:54.112Z,78.79
2019-03-02T02:56:48.716Z,78.21
2019-03-02T03:01:43.350Z,77.87
2019-03-02T03:06:37.945Z,77.62
2019-03-02T03:11:32.515Z,78.11
2019-03-02T03:16:27.116Z,77.89
2019-03-02T03:21:26.832Z,78.01
2019-03-02T03:26:18.130Z,78.23
2019-03-02T03:31:21.505Z,77.69
2019-03-02T03:36:09.024Z,77.88
2019-03-02T03:41:05.263Z,76.44
2019-03-02T03:46:00.033Z,76.60
2019-03-02T03:50:54.634Z,76.86
2019-03-02T03:55:49.458Z,77.17
2019-03-02T04:00:44.058Z,77.48
2019-03-02T04:05:42.232Z,77.15
2019-03-02T04:10:35.093Z,76.56
2019-03-02T04:15:29.753Z,77.09
2019-03-02T04:20:38.450Z,77.45
2019-03-02T04:25:33.037Z,78.19
2019-03-02T04:30:31.263Z,78.26
2019-03-02T04:35:24.124Z,78.33
2019-03-02T04:40:23.278Z,79.81
2019-03-02T04:45:15.084Z,80.59
2019-03-02T04:50:10.321Z,80.24
2019-03-02T04:55:09.408Z,78.21
2019-03-02T05:00:12.857Z,78.79
2019-03-02T05:05:08.415Z,79.89
2019-03-02T05:10:04.688Z,80.77
2019-03-02T05:14:59.286Z,81.04
2019-03-02T05:19:53.902Z,81.00
2019-03-02T05:24:48.505Z,80.53
2019-03-02T05:29:43.104Z,80.38
2019-03-02T05:34:39.769Z,80.38
2019-03-02T05:39:34.067Z,80.28
2019-03-02T05:44:28.658Z,80.14
2019-03-02T05:49:23.251Z,80.11
2019-03-02T05:54:17.834Z,79.62
2019-03-02T05:59:12.435Z,78.38
2019-03-02T06:04:07.025Z,76.55
2019-03-02T06:09:01.623Z,77.82
2019-03-02T06:13:56.218Z,78.74
2019-03-02T06:18:50.809Z,79.34
2019-03-02T06:23:45.397Z,77.55
2019-03-02T06:28:40.056Z,78.04
2019-03-02T06:33:36.104Z,78.27
2019-03-02T06:38:32.100Z,77.40
2019-03-02T06:43:27.075Z,77.79
2019-03-02T06:48:21.687Z,78.55
2019-03-02T06:53:16.265Z,78.62
2019-03-02T06:58:10.924Z,77.00
2019-03-02T07:03:06.736Z,76.71
2019-03-02T07:08:01.841Z,76.75
2019-03-02T07:12:58.075Z,77.37
2019-03-02T07:18:10.663Z,78.10
2019-03-02T07:23:05.311Z,78.42
2019-03-02T07:28:01.771Z,78.72
2019-03-02T07:32:56.231Z,78.76
2019-03-02T07:37:50.842Z,79.09
2019-03-02T07:42:45.436Z,78.95
2019-03-02T07:47:40.037Z,78.78
2019-03-02T07:52:34.633Z,78.57
2019-03-02T07:57:29.258Z,77.45
2019-03-02T08:02:25.768Z,77.06
2019-03-02T08:07:20.148Z,76.92
2019-03-02T08:12:14.796Z,76.12
2019-03-02T08:17:09.759Z,74.67
2019-03-02T08:22:07.850Z,74.18
2019-03-02T08:27:02.682Z,73.67
2019-03-02T08:31:57.263Z,73.49
2019-03-02T08:36:54.291Z,72.62
2019-03-02T08:41:48.175Z,71.82
2019-03-02T08:46:42.749Z,71.30
2019-03-02T08:51:37.319Z,70.64
2019-03-02T08:56:31.923Z,69.72
2019-03-02T09:01:26.596Z,70.01
2019-03-02T09:06:21.189Z,70.90
2019-03-02T09:11:15.763Z,71.56
2019-03-02T09:16:10.503Z,71.53
2019-03-02T09:21:05.168Z,71.42
2019-03-02T09:26:00.980Z,72.15
2019-03-02T09:30:58.852Z,73.62
2019-03-02T09:35:54.857Z,73.41
2019-03-02T09:40:49.104Z,72.81
2019-03-02T09:45:47.874Z,72.96
2019-03-02T09:50:41.094Z,73.89
2019-03-02T09:55:35.702Z,73.70
2019-03-02T10:00:31.730Z,72.97
2019-03-02T10:05:27.195Z,72.68
2019-03-02T10:10:25.045Z,72.81
2019-03-02T10:15:31.498Z,71.78
2019-03-02T10:20:26.320Z,71.35
2019-03-02T10:25:20.981Z,71.59
2019-03-02T10:30:27.451Z,70.78
2019-03-02T10:35:22.379Z,69.97
2019-03-02T10:40:19.491Z,69.02
2019-03-02T10:45:20.044Z,69.91
2019-03-02T10:50:28.415Z,69.17
2019-03-02T10:55:24.509Z,68.76
2019-03-02T11:00:31.959Z,67.95
2019-03-02T11:05:41.729Z,67.09
2019-03-02T11:10:53.428Z,65.69
2019-03-02T11:15:49.702Z,65.02
2019-03-02T11:20:45.952Z,64.54
2019-03-02T11:25:44.817Z,63.38
2019-03-02T11:30:41.068Z,62.68
2019-03-02T11:35:43.124Z,61.82
2019-03-02T11:40:57.410Z,62.21
2019-03-02T11:45:56.953Z,61.64
2019-03-02T11:51:11.354Z,61.71
2019-03-02T11:56:07.701Z,61.78
2019-03-02T12:01:03.910Z,61.82
2019-03-02T12:06:16.259Z,61.80
2019-03-02T12:11:28.564Z,62.27
2019-03-02T12:16:26.437Z,62.43
2019-03-02T12:21:29.529Z,62.92
2019-03-02T12:26:38.012Z,61.58
2019-03-02T12:31:43.479Z,62.70
2019-03-02T12:36:42.146Z,63.91
2019-03-02T12:41:41.250Z,63.79
2019-03-02T12:46:59.290Z,63.02
2019-03-02T12:52:02.569Z,62.82
2019-03-02T12:57:01.299Z,60.90
2019-03-02T13:02:03.498Z,60.93
2019-03-02T13:07:02.213Z,61.88
2019-03-02T13:12:14.603Z,62.57
2019-03-02T13:17:18.864Z,60.57
2019-03-02T13:22:21.367Z,61.04
2019-03-02T13:27:32.872Z,61.01
2019-03-02T13:32:34.844Z,61.00
2019-03-02T13:37:33.505Z,60.12
2019-03-02T13:42:31.325Z,61.00
2019-03-02T13:47:30.237Z,59.97
2019-03-02T13:52:26.486Z,60.54
2019-03-02T13:57:41.784Z,59.92
2019-03-02T14:02:39.626Z,60.00
2019-03-02T14:07:51.936Z,60.35
2019-03-02T14:12:54.351Z,60.99
2019-03-02T14:17:56.941Z,60.86
2019-03-02T14:22:55.806Z,61.41
2019-03-02T14:27:58.721Z,62.21
2019-03-02T14:32:55.049Z,63.97
2019-03-02T14:38:00.043Z,64.81
2019-03-02T14:42:56.314Z,66.01
2019-03-02T14:48:04.489Z,66.90
2019-03-02T14:53:10.032Z,67.54
2019-03-02T14:58:16.278Z,67.42
2019-03-02T15:03:25.184Z,67.44
2019-03-02T15:08:24.881Z,66.46
2019-03-02T15:13:32.810Z,66.48
2019-03-02T15:18:45.032Z,66.13
2019-03-02T15:23:41.244Z,65.88
2019-03-02T15:28:40.158Z,65.36
2019-03-02T15:33:40.214Z,65.73
2019-03-02T15:38:40.099Z,64.85
2019-03-02T15:43:40.118Z,64.42
2019-03-02T15:48:45.675Z,63.74
2019-03-02T15:53:56.561Z,63.49
2019-03-02T15:58:55.791Z,62.42
2019-03-02T16:04:06.361Z,62.54
2019-03-02T16:09:18.866Z,63.06
2019-03-02T16:14:28.969Z,63.78
2019-03-02T16:19:43.813Z,64.64
2019-03-02T16:24:42.605Z,65.69
2019-03-02T16:29:55.854Z,66.19
2019-03-02T16:35:08.569Z,66.54
2019-03-02T16:40:05.976Z,67.27
2019-03-02T16:45:00.494Z,68.20
2019-03-02T16:50:02.711Z,68.84
2019-03-02T16:55:01.578Z,69.22
2019-03-02T17:00:05.288Z,69.25
2019-03-02T17:05:02.994Z,69.37
2019-03-02T17:09:59.315Z,70.06
2019-03-02T17:15:09.680Z,70.81
2019-03-02T17:20:21.268Z,71.67
2019-03-02T17:25:30.768Z,72.24
2019-03-02T17:30:27.687Z,72.77
2019-03-02T17:35:25.611Z,73.38
2019-03-02T17:40:28.053Z,74.15
2019-03-02T17:45:24.275Z,74.76
2019-03-02T17:50:19.758Z,75.28
2019-03-02T17:55:19.525Z,75.47
2019-03-02T18:00:28.921Z,75.91
2019-03-02T18:05:27.859Z,75.84
2019-03-02T18:10:27.126Z,76.11
2019-03-02T18:15:36.361Z,76.12
2019-03-02T18:20:31.248Z,75.92
2019-03-02T18:25:25.941Z,75.12
2019-03-02T18:30:22.912Z,73.65
2019-03-02T18:35:17.572Z,74.02
2019-03-02T18:40:14.898Z,74.07
2019-03-02T18:45:13.865Z,72.68
2019-03-02T18:50:20.878Z,71.54
2019-03-02T18:55:15.433Z,70.88
2019-03-02T19:00:16.154Z,70.33
2019-03-02T19:05:14.114Z,70.15
2019-03-02T19:10:13.235Z,71.14
2019-03-02T19:15:14.437Z,71.24
2019-03-02T19:20:09.026Z,71.83
2019-03-02T19:25:04.766Z,72.10
2019-03-02T19:29:59.374Z,71.86
2019-03-02T19:34:53.969Z,71.83
2019-03-02T19:39:48.575Z,71.59
2019-03-02T19:44:43.141Z,70.84
2019-03-02T19:49:37.741Z,70.48
2019-03-02T19:54:33.206Z,70.29
2019-03-02T19:59:27.805Z,69.66
2019-03-02T20:04:22.401Z,69.59
2019-03-02T20:09:17.133Z,69.48
2019-03-02T20:14:11.878Z,69.34
2019-03-02T20:19:06.462Z,69.80
2019-03-02T20:24:01.067Z,70.36
2019-03-02T20:28:55.673Z,70.52
2019-03-02T20:33:50.241Z,70.58
2019-03-02T20:38:44.900Z,70.79
2019-03-02T20:43:39.470Z,70.88
2019-03-02T20:48:34.057Z,70.96
2019-03-02T20:53:28.641Z,69.11
2019-03-02T20:58:23.232Z,69.29
2019-03-02T21:03:17.871Z,69.37
2019-03-02T21:08:12.464Z,68.97
2019-03-02T21:13:07.037Z,69.53
2019-03-02T21:18:01.761Z,70.81
2019-03-02T21:22:56.361Z,70.33
2019-03-02T21:27:50.979Z,70.17
2019-03-02T21:32:45.613Z,71.00
2019-03-02T21:37:40.194Z,71.23
2019-03-02T21:42:34.773Z,71.94
2019-03-02T21:47:29.360Z,72.04
2019-03-02T21:52:23.955Z,72.55
2019-03-02T21:57:18.556Z,72.62
2019-03-02T22:02:13.208Z,72.74
2019-03-02T22:07:07.802Z,73.52
2019-03-02T22:12:02.371Z,73.40
2019-03-02T22:16:58.760Z,73.17
2019-03-02T22:21:53.328Z,73.41
2019-03-02T22:26:47.924Z,73.20
2019-03-02T22:31:42.485Z,73.37
2019-03-02T22:36:37.072Z,72.79
2019-03-02T22:41:31.653Z,73.27
2019-03-02T22:46:26.237Z,72.56
2019-03-02T22:51:20.814Z,72.76
2019-03-02T22:56:15.416Z,72.98
2019-03-02T23:01:26.218Z,73.33
2019-03-02T23:06:20.785Z,73.04
2019-03-02T23:11:15.383Z,73.22
2019-03-02T23:16:09.956Z,73.18
2019-03-02T23:21:04.612Z,72.98
2019-03-02T23:25:59.178Z,72.82
2019-03-02T23:30:53.774Z,73.04
2019-03-02T23:35:48.352Z,72.84
2019-03-02T23:40:43.005Z,72.61
2019-03-02T23:45:37.655Z,72.03
2019-03-02T23:50:32.316Z,72.84
2019-03-02T23:55:26.881Z,72.44
